sensor_id;sensor_type;location;lat;lon;timestamp;P1;durP1;ratioP1;P2;durP2;ratioP2
9485;SDS011;4781;48.776;9.200;2024-02-21T00:01:07;5.05;;;1.55;;
9485;SDS011;4781;48.776;9.200;2024-02-21T00:03:35;5.72;;;2.08;;
9485;SDS011;4781;48.776;9.200;2024-02-21T00:06:04;6.97;;;1.60;;
9485;SDS011;4781;48.776;9.200;2024-02-21T00:08:32;6.75;;;1.80;;
9485;SDS011;4781;48.776;9.200;2024-02-21T00:11:00;4.90;;;1.98;;
9485;SDS011;4781;48.776;9.200;2024-02-21T00:13:29;6.22;;;2.02;;
9485;SDS011;4781;48.776;9.200;2024-02-21T00:15:57;3.67;;;1.77;;
9485;SDS011;4781;48.776;9.200;2024-02-21T00:18:27;3.72;;;2.10;;
9485;SDS011;4781;48.776;9.200;2024-02-21T00:20:56;3.80;;;1.62;;
9485;SDS011;4781;48.776;9.200;2024-02-21T00:23:24;4.37;;;1.42;;
9485;SDS011;4781;48.776;9.200;2024-02-21T00:25:53;4.40;;;1.50;;
9485;SDS011;4781;48.776;9.200;2024-02-21T00:28:21;2.95;;;1.52;;
9485;SDS011;4781;48.776;9.200;2024-02-21T00:30:50;5.40;;;1.77;;
9485;SDS011;4781;48.776;9.200;2024-02-21T00:33:19;4.65;;;1.57;;
9485;SDS011;4781;48.776;9.200;2024-02-21T00:35:47;5.78;;;1.90;;
9485;SDS011;4781;48.776;9.200;2024-02-21T00:38:15;2.65;;;1.30;;
9485;SDS011;4781;48.776;9.200;2024-02-21T00:40:44;3.08;;;1.22;;
9485;SDS011;4781;48.776;9.200;2024-02-21T00:43:12;2.80;;;1.35;;
9485;SDS011;4781;48.776;9.200;2024-02-21T00:45:41;3.10;;;2.15;;
9485;SDS011;4781;48.776;9.200;2024-02-21T00:48:09;7.37;;;1.60;;
9485;SDS011;4781;48.776;9.200;2024-02-21T00:50:38;2.62;;;1.00;;
9485;SDS011;4781;48.776;9.200;2024-02-21T00:53:06;3.25;;;1.35;;
9485;SDS011;4781;48.776;9.200;2024-02-21T00:55:35;6.30;;;1.67;;
9485;SDS011;4781;48.776;9.200;2024-02-21T00:58:04;3.72;;;1.40;;
9485;SDS011;4781;48.776;9.200;2024-02-21T01:00:32;6.43;;;2.03;;
9485;SDS011;4781;48.776;9.200;2024-02-21T01:03:01;8.85;;;1.60;;
9485;SDS011;4781;48.776;9.200;2024-02-21T01:05:30;3.37;;;1.40;;
9485;SDS011;4781;48.776;9.200;2024-02-21T01:07:58;3.47;;;1.30;;
9485;SDS011;4781;48.776;9.200;2024-02-21T01:10:26;4.25;;;1.35;;
9485;SDS011;4781;48.776;9.200;2024-02-21T01:12:55;8.08;;;1.95;;
9485;SDS011;4781;48.776;9.200;2024-02-21T01:15:24;2.90;;;1.30;;
9485;SDS011;4781;48.776;9.200;2024-02-21T01:17:52;6.00;;;1.82;;
9485;SDS011;4781;48.776;9.200;2024-02-21T01:20:21;4.28;;;1.40;;
9485;SDS011;4781;48.776;9.200;2024-02-21T01:22:49;3.42;;;1.50;;
9485;SDS011;4781;48.776;9.200;2024-02-21T01:25:18;5.90;;;1.45;;
9485;SDS011;4781;48.776;9.200;2024-02-21T01:27:46;4.65;;;1.90;;
9485;SDS011;4781;48.776;9.200;2024-02-21T01:30:14;4.03;;;1.40;;
9485;SDS011;4781;48.776;9.200;2024-02-21T01:32:43;2.98;;;1.50;;
9485;SDS011;4781;48.776;9.200;2024-02-21T01:35:11;4.83;;;1.57;;
9485;SDS011;4781;48.776;9.200;2024-02-21T01:37:40;2.52;;;1.20;;
9485;SDS011;4781;48.776;9.200;2024-02-21T01:40:08;5.60;;;2.08;;
9485;SDS011;4781;48.776;9.200;2024-02-21T01:42:38;5.83;;;1.55;;
9485;SDS011;4781;48.776;9.200;2024-02-21T01:45:07;4.65;;;1.72;;
9485;SDS011;4781;48.776;9.200;2024-02-21T01:47:36;4.75;;;1.77;;
9485;SDS011;4781;48.776;9.200;2024-02-21T01:50:05;6.42;;;1.25;;
9485;SDS011;4781;48.776;9.200;2024-02-21T01:52:34;3.90;;;1.50;;
9485;SDS011;4781;48.776;9.200;2024-02-21T01:55:03;3.00;;;1.40;;
9485;SDS011;4781;48.776;9.200;2024-02-21T01:57:33;3.83;;;1.40;;
9485;SDS011;4781;48.776;9.200;2024-02-21T02:00:02;4.03;;;1.82;;
9485;SDS011;4781;48.776;9.200;2024-02-21T02:02:31;2.33;;;1.12;;
9485;SDS011;4781;48.776;9.200;2024-02-21T02:04:59;4.17;;;1.35;;
9485;SDS011;4781;48.776;9.200;2024-02-21T02:07:29;5.10;;;2.00;;
9485;SDS011;4781;48.776;9.200;2024-02-21T02:09:57;5.75;;;1.67;;
9485;SDS011;4781;48.776;9.200;2024-02-21T02:12:26;4.22;;;1.40;;
9485;SDS011;4781;48.776;9.200;2024-02-21T02:15:01;6.45;;;1.80;;
9485;SDS011;4781;48.776;9.200;2024-02-21T02:17:31;8.33;;;1.62;;
9485;SDS011;4781;48.776;9.200;2024-02-21T02:19:59;5.92;;;1.60;;
9485;SDS011;4781;48.776;9.200;2024-02-21T02:22:28;4.90;;;1.40;;
9485;SDS011;4781;48.776;9.200;2024-02-21T02:24:58;3.35;;;1.35;;
9485;SDS011;4781;48.776;9.200;2024-02-21T02:27:27;7.53;;;1.40;;
9485;SDS011;4781;48.776;9.200;2024-02-21T02:29:55;4.50;;;1.27;;
9485;SDS011;4781;48.776;9.200;2024-02-21T02:32:24;4.00;;;1.35;;
9485;SDS011;4781;48.776;9.200;2024-02-21T02:34:52;2.87;;;1.40;;
9485;SDS011;4781;48.776;9.200;2024-02-21T02:37:21;6.55;;;1.72;;
9485;SDS011;4781;48.776;9.200;2024-02-21T02:39:49;4.37;;;1.30;;
9485;SDS011;4781;48.776;9.200;2024-02-21T02:42:18;3.98;;;1.52;;
9485;SDS011;4781;48.776;9.200;2024-02-21T02:44:47;4.95;;;1.45;;
9485;SDS011;4781;48.776;9.200;2024-02-21T02:47:15;4.03;;;1.70;;
9485;SDS011;4781;48.776;9.200;2024-02-21T02:49:43;6.17;;;1.62;;
9485;SDS011;4781;48.776;9.200;2024-02-21T02:52:13;4.37;;;1.82;;
9485;SDS011;4781;48.776;9.200;2024-02-21T02:54:42;4.75;;;1.85;;
9485;SDS011;4781;48.776;9.200;2024-02-21T02:57:10;6.17;;;1.95;;
9485;SDS011;4781;48.776;9.200;2024-02-21T02:59:39;3.77;;;1.50;;
9485;SDS011;4781;48.776;9.200;2024-02-21T03:02:07;4.12;;;1.60;;
9485;SDS011;4781;48.776;9.200;2024-02-21T03:04:35;5.05;;;1.60;;
9485;SDS011;4781;48.776;9.200;2024-02-21T03:07:07;7.58;;;2.02;;
9485;SDS011;4781;48.776;9.200;2024-02-21T03:09:37;2.30;;;1.07;;
9485;SDS011;4781;48.776;9.200;2024-02-21T03:12:06;2.87;;;1.35;;
9485;SDS011;4781;48.776;9.200;2024-02-21T03:14:35;4.00;;;1.32;;
9485;SDS011;4781;48.776;9.200;2024-02-21T03:17:03;3.02;;;1.15;;
9485;SDS011;4781;48.776;9.200;2024-02-21T03:19:32;3.15;;;1.40;;
9485;SDS011;4781;48.776;9.200;2024-02-21T03:22:00;5.75;;;1.45;;
9485;SDS011;4781;48.776;9.200;2024-02-21T03:24:28;6.75;;;1.70;;
9485;SDS011;4781;48.776;9.200;2024-02-21T03:26:58;3.50;;;1.77;;
9485;SDS011;4781;48.776;9.200;2024-02-21T03:29:27;2.92;;;1.40;;
9485;SDS011;4781;48.776;9.200;2024-02-21T03:31:55;7.37;;;2.35;;
9485;SDS011;4781;48.776;9.200;2024-02-21T03:34:24;2.70;;;1.40;;
9485;SDS011;4781;48.776;9.200;2024-02-21T03:36:52;3.65;;;1.80;;
9485;SDS011;4781;48.776;9.200;2024-02-21T03:39:20;3.65;;;1.75;;
9485;SDS011;4781;48.776;9.200;2024-02-21T03:41:49;4.92;;;1.95;;
9485;SDS011;4781;48.776;9.200;2024-02-21T03:44:17;4.53;;;1.50;;
9485;SDS011;4781;48.776;9.200;2024-02-21T03:46:45;5.75;;;2.75;;
9485;SDS011;4781;48.776;9.200;2024-02-21T03:49:14;4.20;;;1.50;;
9485;SDS011;4781;48.776;9.200;2024-02-21T03:51:43;3.12;;;1.50;;
9485;SDS011;4781;48.776;9.200;2024-02-21T03:54:12;3.33;;;1.27;;
9485;SDS011;4781;48.776;9.200;2024-02-21T03:56:40;6.70;;;1.45;;
9485;SDS011;4781;48.776;9.200;2024-02-21T03:59:08;4.78;;;1.70;;
9485;SDS011;4781;48.776;9.200;2024-02-21T04:01:37;4.83;;;1.27;;
9485;SDS011;4781;48.776;9.200;2024-02-21T04:04:05;4.62;;;1.45;;
9485;SDS011;4781;48.776;9.200;2024-02-21T04:06:34;3.27;;;1.20;;
9485;SDS011;4781;48.776;9.200;2024-02-21T04:09:02;2.80;;;1.40;;
9485;SDS011;4781;48.776;9.200;2024-02-21T04:11:30;3.02;;;1.32;;
9485;SDS011;4781;48.776;9.200;2024-02-21T04:13:59;2.37;;;1.02;;
9485;SDS011;4781;48.776;9.200;2024-02-21T04:16:27;7.55;;;1.45;;
9485;SDS011;4781;48.776;9.200;2024-02-21T04:18:55;2.83;;;1.22;;
9485;SDS011;4781;48.776;9.200;2024-02-21T04:21:24;1.98;;;1.07;;
9485;SDS011;4781;48.776;9.200;2024-02-21T04:23:52;6.65;;;1.60;;
9485;SDS011;4781;48.776;9.200;2024-02-21T04:26:21;4.42;;;1.60;;
9485;SDS011;4781;48.776;9.200;2024-02-21T04:28:49;3.92;;;1.30;;
9485;SDS011;4781;48.776;9.200;2024-02-21T04:31:18;2.52;;;1.35;;
9485;SDS011;4781;48.776;9.200;2024-02-21T04:33:47;4.92;;;1.72;;
9485;SDS011;4781;48.776;9.200;2024-02-21T04:36:15;5.10;;;1.65;;
9485;SDS011;4781;48.776;9.200;2024-02-21T04:38:43;3.70;;;1.60;;
9485;SDS011;4781;48.776;9.200;2024-02-21T04:41:12;3.42;;;1.15;;
9485;SDS011;4781;48.776;9.200;2024-02-21T04:43:41;4.92;;;1.45;;
9485;SDS011;4781;48.776;9.200;2024-02-21T04:46:09;7.20;;;1.50;;
9485;SDS011;4781;48.776;9.200;2024-02-21T04:48:37;3.55;;;1.60;;
9485;SDS011;4781;48.776;9.200;2024-02-21T04:51:06;5.47;;;2.20;;
9485;SDS011;4781;48.776;9.200;2024-02-21T04:53:34;8.83;;;2.33;;
9485;SDS011;4781;48.776;9.200;2024-02-21T04:56:02;10.10;;;4.72;;
9485;SDS011;4781;48.776;9.200;2024-02-21T04:58:31;9.48;;;2.85;;
9485;SDS011;4781;48.776;9.200;2024-02-21T05:00:59;5.42;;;2.83;;
9485;SDS011;4781;48.776;9.200;2024-02-21T05:03:28;6.35;;;2.15;;
9485;SDS011;4781;48.776;9.200;2024-02-21T05:05:56;3.10;;;1.57;;
9485;SDS011;4781;48.776;9.200;2024-02-21T05:08:26;3.17;;;1.40;;
9485;SDS011;4781;48.776;9.200;2024-02-21T05:10:54;6.45;;;1.37;;
9485;SDS011;4781;48.776;9.200;2024-02-21T05:13:23;3.27;;;1.60;;
9485;SDS011;4781;48.776;9.200;2024-02-21T05:15:51;4.40;;;1.60;;
9485;SDS011;4781;48.776;9.200;2024-02-21T05:18:20;3.42;;;1.42;;
9485;SDS011;4781;48.776;9.200;2024-02-21T05:20:48;4.20;;;1.98;;
9485;SDS011;4781;48.776;9.200;2024-02-21T05:23:16;4.45;;;1.67;;
9485;SDS011;4781;48.776;9.200;2024-02-21T05:25:45;3.75;;;1.70;;
9485;SDS011;4781;48.776;9.200;2024-02-21T05:28:13;5.10;;;1.82;;
9485;SDS011;4781;48.776;9.200;2024-02-21T05:30:42;3.35;;;1.37;;
9485;SDS011;4781;48.776;9.200;2024-02-21T05:33:10;3.67;;;1.50;;
9485;SDS011;4781;48.776;9.200;2024-02-21T05:35:40;3.20;;;1.15;;
9485;SDS011;4781;48.776;9.200;2024-02-21T05:38:09;4.87;;;1.40;;
9485;SDS011;4781;48.776;9.200;2024-02-21T05:40:37;3.22;;;1.25;;
9485;SDS011;4781;48.776;9.200;2024-02-21T05:43:07;3.45;;;1.32;;
9485;SDS011;4781;48.776;9.200;2024-02-21T05:45:35;1.50;;;1.00;;
9485;SDS011;4781;48.776;9.200;2024-02-21T05:48:04;3.45;;;1.25;;
9485;SDS011;4781;48.776;9.200;2024-02-21T05:50:33;2.77;;;1.17;;
9485;SDS011;4781;48.776;9.200;2024-02-21T05:53:01;3.40;;;1.57;;
9485;SDS011;4781;48.776;9.200;2024-02-21T05:55:30;3.98;;;1.40;;
9485;SDS011;4781;48.776;9.200;2024-02-21T05:57:58;3.05;;;1.20;;
9485;SDS011;4781;48.776;9.200;2024-02-21T06:00:26;2.55;;;1.30;;
9485;SDS011;4781;48.776;9.200;2024-02-21T06:02:55;5.47;;;1.98;;
9485;SDS011;4781;48.776;9.200;2024-02-21T06:05:24;3.75;;;1.17;;
9485;SDS011;4781;48.776;9.200;2024-02-21T06:07:52;2.90;;;1.32;;
9485;SDS011;4781;48.776;9.200;2024-02-21T06:10:20;2.40;;;1.32;;
9485;SDS011;4781;48.776;9.200;2024-02-21T06:12:49;4.83;;;1.20;;
9485;SDS011;4781;48.776;9.200;2024-02-21T06:15:17;3.17;;;1.40;;
9485;SDS011;4781;48.776;9.200;2024-02-21T06:17:46;3.05;;;1.70;;
9485;SDS011;4781;48.776;9.200;2024-02-21T06:20:16;2.20;;;1.02;;
9485;SDS011;4781;48.776;9.200;2024-02-21T06:22:44;2.87;;;1.27;;
9485;SDS011;4781;48.776;9.200;2024-02-21T06:25:12;3.47;;;1.40;;
9485;SDS011;4781;48.776;9.200;2024-02-21T06:27:41;3.83;;;1.32;;
9485;SDS011;4781;48.776;9.200;2024-02-21T06:30:10;2.73;;;1.37;;
9485;SDS011;4781;48.776;9.200;2024-02-21T06:32:39;4.08;;;0.98;;
9485;SDS011;4781;48.776;9.200;2024-02-21T06:35:07;3.25;;;1.40;;
9485;SDS011;4781;48.776;9.200;2024-02-21T06:37:36;3.75;;;1.65;;
9485;SDS011;4781;48.776;9.200;2024-02-21T06:40:05;2.92;;;1.32;;
9485;SDS011;4781;48.776;9.200;2024-02-21T06:42:34;4.35;;;1.30;;
9485;SDS011;4781;48.776;9.200;2024-02-21T06:45:03;4.30;;;1.52;;
9485;SDS011;4781;48.776;9.200;2024-02-21T06:47:32;4.25;;;1.07;;
9485;SDS011;4781;48.776;9.200;2024-02-21T06:50:00;3.67;;;1.20;;
9485;SDS011;4781;48.776;9.200;2024-02-21T06:52:29;2.35;;;1.30;;
9485;SDS011;4781;48.776;9.200;2024-02-21T06:54:57;4.08;;;1.00;;
9485;SDS011;4781;48.776;9.200;2024-02-21T06:57:25;3.35;;;1.47;;
9485;SDS011;4781;48.776;9.200;2024-02-21T06:59:55;3.52;;;1.27;;
9485;SDS011;4781;48.776;9.200;2024-02-21T07:02:23;5.85;;;1.47;;
9485;SDS011;4781;48.776;9.200;2024-02-21T07:04:52;2.55;;;1.47;;
9485;SDS011;4781;48.776;9.200;2024-02-21T07:07:20;2.02;;;0.98;;
9485;SDS011;4781;48.776;9.200;2024-02-21T07:09:48;3.52;;;1.22;;
9485;SDS011;4781;48.776;9.200;2024-02-21T07:12:17;3.95;;;1.32;;
9485;SDS011;4781;48.776;9.200;2024-02-21T07:14:45;5.30;;;1.40;;
9485;SDS011;4781;48.776;9.200;2024-02-21T07:17:14;3.08;;;1.22;;
9485;SDS011;4781;48.776;9.200;2024-02-21T07:19:42;4.03;;;1.42;;
9485;SDS011;4781;48.776;9.200;2024-02-21T07:22:10;2.60;;;1.22;;
9485;SDS011;4781;48.776;9.200;2024-02-21T07:24:39;3.98;;;1.27;;
9485;SDS011;4781;48.776;9.200;2024-02-21T07:27:07;1.85;;;0.88;;
9485;SDS011;4781;48.776;9.200;2024-02-21T07:29:35;5.45;;;1.45;;
9485;SDS011;4781;48.776;9.200;2024-02-21T07:32:04;3.30;;;1.00;;
9485;SDS011;4781;48.776;9.200;2024-02-21T07:34:32;3.12;;;1.20;;
9485;SDS011;4781;48.776;9.200;2024-02-21T07:37:01;3.85;;;1.57;;
9485;SDS011;4781;48.776;9.200;2024-02-21T07:39:29;3.92;;;1.40;;
9485;SDS011;4781;48.776;9.200;2024-02-21T07:41:58;3.02;;;1.37;;
9485;SDS011;4781;48.776;9.200;2024-02-21T07:44:26;4.83;;;1.10;;
9485;SDS011;4781;48.776;9.200;2024-02-21T07:46:54;3.10;;;1.42;;
9485;SDS011;4781;48.776;9.200;2024-02-21T07:49:23;2.72;;;1.25;;
9485;SDS011;4781;48.776;9.200;2024-02-21T07:51:52;3.27;;;1.45;;
9485;SDS011;4781;48.776;9.200;2024-02-21T07:54:20;5.37;;;1.42;;
9485;SDS011;4781;48.776;9.200;2024-02-21T07:56:48;3.25;;;1.40;;
9485;SDS011;4781;48.776;9.200;2024-02-21T07:59:18;2.80;;;1.10;;
9485;SDS011;4781;48.776;9.200;2024-02-21T08:01:46;1.45;;;0.90;;
9485;SDS011;4781;48.776;9.200;2024-02-21T08:04:14;4.85;;;1.65;;
9485;SDS011;4781;48.776;9.200;2024-02-21T08:06:43;4.33;;;1.35;;
9485;SDS011;4781;48.776;9.200;2024-02-21T08:09:13;3.62;;;1.40;;
9485;SDS011;4781;48.776;9.200;2024-02-21T08:11:41;2.33;;;1.02;;
9485;SDS011;4781;48.776;9.200;2024-02-21T08:14:09;3.67;;;1.20;;
9485;SDS011;4781;48.776;9.200;2024-02-21T08:16:38;5.40;;;1.55;;
9485;SDS011;4781;48.776;9.200;2024-02-21T08:19:06;2.67;;;1.10;;
9485;SDS011;4781;48.776;9.200;2024-02-21T08:21:36;3.40;;;1.10;;
9485;SDS011;4781;48.776;9.200;2024-02-21T08:24:04;1.70;;;0.85;;
9485;SDS011;4781;48.776;9.200;2024-02-21T08:26:33;5.20;;;1.80;;
9485;SDS011;4781;48.776;9.200;2024-02-21T08:29:01;3.42;;;0.93;;
9485;SDS011;4781;48.776;9.200;2024-02-21T08:31:30;5.90;;;1.77;;
9485;SDS011;4781;48.776;9.200;2024-02-21T08:34:00;4.40;;;1.27;;
9485;SDS011;4781;48.776;9.200;2024-02-21T08:36:30;2.50;;;1.35;;
9485;SDS011;4781;48.776;9.200;2024-02-21T08:39:00;4.53;;;1.32;;
9485;SDS011;4781;48.776;9.200;2024-02-21T08:41:31;8.60;;;1.72;;
9485;SDS011;4781;48.776;9.200;2024-02-21T08:43:59;4.30;;;1.60;;
9485;SDS011;4781;48.776;9.200;2024-02-21T08:46:29;3.87;;;1.37;;
9485;SDS011;4781;48.776;9.200;2024-02-21T08:48:57;3.20;;;1.60;;
9485;SDS011;4781;48.776;9.200;2024-02-21T08:51:25;5.67;;;1.42;;
9485;SDS011;4781;48.776;9.200;2024-02-21T08:53:54;4.65;;;1.55;;
9485;SDS011;4781;48.776;9.200;2024-02-21T08:56:23;2.80;;;1.20;;
9485;SDS011;4781;48.776;9.200;2024-02-21T08:58:51;3.65;;;1.60;;
9485;SDS011;4781;48.776;9.200;2024-02-21T09:01:19;4.00;;;1.12;;
9485;SDS011;4781;48.776;9.200;2024-02-21T09:03:48;2.67;;;1.30;;
9485;SDS011;4781;48.776;9.200;2024-02-21T09:06:18;3.45;;;1.27;;
9485;SDS011;4781;48.776;9.200;2024-02-21T09:08:47;5.80;;;1.22;;
9485;SDS011;4781;48.776;9.200;2024-02-21T09:11:15;4.12;;;1.10;;
9485;SDS011;4781;48.776;9.200;2024-02-21T09:13:44;2.35;;;1.25;;
9485;SDS011;4781;48.776;9.200;2024-02-21T09:16:12;2.08;;;1.00;;
9485;SDS011;4781;48.776;9.200;2024-02-21T09:18:41;4.17;;;1.65;;
9485;SDS011;4781;48.776;9.200;2024-02-21T09:21:09;3.30;;;1.45;;
9485;SDS011;4781;48.776;9.200;2024-02-21T09:23:37;2.15;;;1.05;;
9485;SDS011;4781;48.776;9.200;2024-02-21T09:26:06;2.62;;;1.25;;
9485;SDS011;4781;48.776;9.200;2024-02-21T09:28:36;4.60;;;1.50;;
9485;SDS011;4781;48.776;9.200;2024-02-21T09:31:04;4.67;;;2.33;;
9485;SDS011;4781;48.776;9.200;2024-02-21T09:33:32;3.80;;;1.95;;
9485;SDS011;4781;48.776;9.200;2024-02-21T09:36:01;4.20;;;1.32;;
9485;SDS011;4781;48.776;9.200;2024-02-21T09:38:31;1.95;;;1.00;;
9485;SDS011;4781;48.776;9.200;2024-02-21T09:41:03;2.30;;;1.10;;
9485;SDS011;4781;48.776;9.200;2024-02-21T09:43:45;3.20;;;0.98;;
9485;SDS011;4781;48.776;9.200;2024-02-21T09:46:17;2.80;;;1.00;;
9485;SDS011;4781;48.776;9.200;2024-02-21T09:48:58;2.58;;;1.12;;
9485;SDS011;4781;48.776;9.200;2024-02-21T09:51:42;5.55;;;2.05;;
9485;SDS011;4781;48.776;9.200;2024-02-21T09:54:12;5.33;;;1.00;;
9485;SDS011;4781;48.776;9.200;2024-02-21T09:56:40;6.50;;;1.72;;
9485;SDS011;4781;48.776;9.200;2024-02-21T09:59:10;3.98;;;1.52;;
9485;SDS011;4781;48.776;9.200;2024-02-21T10:01:39;3.25;;;1.00;;
9485;SDS011;4781;48.776;9.200;2024-02-21T10:04:10;4.80;;;1.00;;
9485;SDS011;4781;48.776;9.200;2024-02-21T10:06:38;1.60;;;0.80;;
9485;SDS011;4781;48.776;9.200;2024-02-21T10:09:07;4.05;;;1.40;;
9485;SDS011;4781;48.776;9.200;2024-02-21T10:11:35;3.45;;;1.32;;
9485;SDS011;4781;48.776;9.200;2024-02-21T10:14:07;2.85;;;1.07;;
9485;SDS011;4781;48.776;9.200;2024-02-21T10:16:35;5.03;;;1.00;;
9485;SDS011;4781;48.776;9.200;2024-02-21T10:19:04;3.25;;;0.93;;
9485;SDS011;4781;48.776;9.200;2024-02-21T10:21:32;2.37;;;1.00;;
9485;SDS011;4781;48.776;9.200;2024-02-21T10:24:00;5.70;;;1.22;;
9485;SDS011;4781;48.776;9.200;2024-02-21T10:26:29;1.98;;;1.00;;
9485;SDS011;4781;48.776;9.200;2024-02-21T10:28:57;4.15;;;1.10;;
9485;SDS011;4781;48.776;9.200;2024-02-21T10:31:28;4.10;;;1.00;;
9485;SDS011;4781;48.776;9.200;2024-02-21T10:33:57;2.08;;;1.10;;
9485;SDS011;4781;48.776;9.200;2024-02-21T10:36:31;4.22;;;1.40;;
9485;SDS011;4781;48.776;9.200;2024-02-21T10:39:00;2.60;;;1.00;;
9485;SDS011;4781;48.776;9.200;2024-02-21T10:41:28;3.40;;;1.05;;
9485;SDS011;4781;48.776;9.200;2024-02-21T10:43:59;6.97;;;1.55;;
9485;SDS011;4781;48.776;9.200;2024-02-21T10:46:31;4.10;;;1.20;;
9485;SDS011;4781;48.776;9.200;2024-02-21T10:49:14;3.00;;;1.20;;
9485;SDS011;4781;48.776;9.200;2024-02-21T10:51:47;2.67;;;1.05;;
9485;SDS011;4781;48.776;9.200;2024-02-21T10:57:05;2.77;;;1.17;;
9485;SDS011;4781;48.776;9.200;2024-02-21T10:59:37;3.67;;;1.45;;
9485;SDS011;4781;48.776;9.200;2024-02-21T11:02:07;5.67;;;1.62;;
9485;SDS011;4781;48.776;9.200;2024-02-21T11:04:35;2.40;;;1.02;;
9485;SDS011;4781;48.776;9.200;2024-02-21T11:07:05;2.92;;;0.72;;
9485;SDS011;4781;48.776;9.200;2024-02-21T11:09:34;4.60;;;1.30;;
9485;SDS011;4781;48.776;9.200;2024-02-21T11:12:03;2.55;;;1.20;;
9485;SDS011;4781;48.776;9.200;2024-02-21T11:14:34;2.80;;;1.00;;
9485;SDS011;4781;48.776;9.200;2024-02-21T11:17:19;3.10;;;0.88;;
9485;SDS011;4781;48.776;9.200;2024-02-21T11:19:50;3.25;;;1.27;;
9485;SDS011;4781;48.776;9.200;2024-02-21T11:22:18;1.75;;;0.95;;
9485;SDS011;4781;48.776;9.200;2024-02-21T11:24:49;5.80;;;1.17;;
9485;SDS011;4781;48.776;9.200;2024-02-21T11:27:19;2.87;;;0.93;;
9485;SDS011;4781;48.776;9.200;2024-02-21T11:29:56;3.12;;;1.05;;
9485;SDS011;4781;48.776;9.200;2024-02-21T11:32:26;3.52;;;1.07;;
9485;SDS011;4781;48.776;9.200;2024-02-21T11:34:56;3.70;;;1.17;;
9485;SDS011;4781;48.776;9.200;2024-02-21T11:37:33;1.98;;;0.80;;
9485;SDS011;4781;48.776;9.200;2024-02-21T11:40:07;2.02;;;1.10;;
9485;SDS011;4781;48.776;9.200;2024-02-21T11:42:38;3.65;;;1.12;;
9485;SDS011;4781;48.776;9.200;2024-02-21T11:45:07;3.42;;;1.25;;
9485;SDS011;4781;48.776;9.200;2024-02-21T11:47:36;2.60;;;1.37;;
9485;SDS011;4781;48.776;9.200;2024-02-21T11:50:09;2.98;;;1.05;;
9485;SDS011;4781;48.776;9.200;2024-02-21T11:52:38;2.00;;;0.80;;
9485;SDS011;4781;48.776;9.200;2024-02-21T11:55:07;3.40;;;1.15;;
9485;SDS011;4781;48.776;9.200;2024-02-21T11:57:36;5.20;;;1.20;;
9485;SDS011;4781;48.776;9.200;2024-02-21T12:00:15;2.05;;;0.85;;
9485;SDS011;4781;48.776;9.200;2024-02-21T12:02:48;5.03;;;1.55;;
9485;SDS011;4781;48.776;9.200;2024-02-21T12:05:18;4.50;;;0.82;;
9485;SDS011;4781;48.776;9.200;2024-02-21T12:07:47;2.00;;;1.00;;
9485;SDS011;4781;48.776;9.200;2024-02-21T12:10:15;4.15;;;1.05;;
9485;SDS011;4781;48.776;9.200;2024-02-21T12:12:44;1.52;;;0.70;;
9485;SDS011;4781;48.776;9.200;2024-02-21T12:15:12;3.02;;;1.00;;
9485;SDS011;4781;48.776;9.200;2024-02-21T12:17:41;1.50;;;0.70;;
9485;SDS011;4781;48.776;9.200;2024-02-21T12:20:10;9.28;;;2.67;;
9485;SDS011;4781;48.776;9.200;2024-02-21T12:22:45;8.93;;;1.82;;
9485;SDS011;4781;48.776;9.200;2024-02-21T12:25:16;1.45;;;0.70;;
9485;SDS011;4781;48.776;9.200;2024-02-21T12:27:48;1.95;;;0.90;;
9485;SDS011;4781;48.776;9.200;2024-02-21T12:30:16;3.23;;;0.90;;
9485;SDS011;4781;48.776;9.200;2024-02-21T12:32:46;3.20;;;0.70;;
9485;SDS011;4781;48.776;9.200;2024-02-21T12:35:17;1.02;;;0.55;;
9485;SDS011;4781;48.776;9.200;2024-02-21T12:37:45;1.80;;;0.90;;
9485;SDS011;4781;48.776;9.200;2024-02-21T12:40:13;1.90;;;0.78;;
9485;SDS011;4781;48.776;9.200;2024-02-21T12:42:42;3.02;;;0.85;;
9485;SDS011;4781;48.776;9.200;2024-02-21T12:45:11;1.90;;;0.72;;
9485;SDS011;4781;48.776;9.200;2024-02-21T12:47:41;3.22;;;0.80;;
9485;SDS011;4781;48.776;9.200;2024-02-21T12:50:09;1.95;;;0.68;;
9485;SDS011;4781;48.776;9.200;2024-02-21T12:52:37;3.55;;;1.10;;
9485;SDS011;4781;48.776;9.200;2024-02-21T12:55:06;1.98;;;0.90;;
9485;SDS011;4781;48.776;9.200;2024-02-21T12:57:36;1.70;;;0.80;;
9485;SDS011;4781;48.776;9.200;2024-02-21T13:00:06;1.32;;;0.70;;
9485;SDS011;4781;48.776;9.200;2024-02-21T13:02:36;2.42;;;1.25;;
9485;SDS011;4781;48.776;9.200;2024-02-21T13:05:05;4.08;;;0.93;;
9485;SDS011;4781;48.776;9.200;2024-02-21T13:07:34;1.37;;;0.60;;
9485;SDS011;4781;48.776;9.200;2024-02-21T13:10:02;2.17;;;0.80;;
9485;SDS011;4781;48.776;9.200;2024-02-21T13:12:31;1.25;;;0.70;;
9485;SDS011;4781;48.776;9.200;2024-02-21T13:14:59;5.10;;;0.80;;
9485;SDS011;4781;48.776;9.200;2024-02-21T13:17:28;4.03;;;0.90;;
9485;SDS011;4781;48.776;9.200;2024-02-21T13:19:57;2.83;;;1.00;;
9485;SDS011;4781;48.776;9.200;2024-02-21T13:22:26;0.85;;;0.60;;
9485;SDS011;4781;48.776;9.200;2024-02-21T13:24:54;3.00;;;1.30;;
9485;SDS011;4781;48.776;9.200;2024-02-21T13:27:22;6.17;;;1.30;;
9485;SDS011;4781;48.776;9.200;2024-02-21T13:29:51;2.70;;;0.90;;
9485;SDS011;4781;48.776;9.200;2024-02-21T13:32:19;2.35;;;1.00;;
9485;SDS011;4781;48.776;9.200;2024-02-21T13:34:48;2.05;;;0.70;;
9485;SDS011;4781;48.776;9.200;2024-02-21T13:37:18;1.32;;;0.50;;
9485;SDS011;4781;48.776;9.200;2024-02-21T13:39:47;1.75;;;0.60;;
9485;SDS011;4781;48.776;9.200;2024-02-21T13:42:15;2.42;;;0.80;;
9485;SDS011;4781;48.776;9.200;2024-02-21T13:44:45;1.82;;;0.80;;
9485;SDS011;4781;48.776;9.200;2024-02-21T13:47:13;3.87;;;1.07;;
9485;SDS011;4781;48.776;9.200;2024-02-21T13:49:42;1.27;;;0.60;;
9485;SDS011;4781;48.776;9.200;2024-02-21T13:52:11;1.67;;;0.70;;
9485;SDS011;4781;48.776;9.200;2024-02-21T13:54:40;1.72;;;0.80;;
9485;SDS011;4781;48.776;9.200;2024-02-21T13:57:08;2.65;;;0.72;;
9485;SDS011;4781;48.776;9.200;2024-02-21T13:59:37;1.52;;;0.80;;
9485;SDS011;4781;48.776;9.200;2024-02-21T14:02:05;2.22;;;0.93;;
9485;SDS011;4781;48.776;9.200;2024-02-21T14:04:34;1.75;;;0.90;;
9485;SDS011;4781;48.776;9.200;2024-02-21T14:07:02;0.75;;;0.55;;
9485;SDS011;4781;48.776;9.200;2024-02-21T14:09:31;2.62;;;0.68;;
9485;SDS011;4781;48.776;9.200;2024-02-21T14:11:59;2.22;;;0.68;;
9485;SDS011;4781;48.776;9.200;2024-02-21T14:14:28;1.30;;;0.55;;
9485;SDS011;4781;48.776;9.200;2024-02-21T14:16:57;0.82;;;0.50;;
9485;SDS011;4781;48.776;9.200;2024-02-21T14:19:26;2.22;;;0.80;;
9485;SDS011;4781;48.776;9.200;2024-02-21T14:21:55;1.90;;;0.80;;
9485;SDS011;4781;48.776;9.200;2024-02-21T14:24:23;2.27;;;0.82;;
9485;SDS011;4781;48.776;9.200;2024-02-21T14:26:53;3.65;;;1.00;;
9485;SDS011;4781;48.776;9.200;2024-02-21T14:29:22;1.35;;;0.80;;
9485;SDS011;4781;48.776;9.200;2024-02-21T14:31:50;1.60;;;0.90;;
9485;SDS011;4781;48.776;9.200;2024-02-21T14:34:18;1.15;;;0.60;;
9485;SDS011;4781;48.776;9.200;2024-02-21T14:36:47;1.85;;;0.70;;
9485;SDS011;4781;48.776;9.200;2024-02-21T14:39:15;1.20;;;0.65;;
9485;SDS011;4781;48.776;9.200;2024-02-21T14:41:44;1.75;;;0.85;;
9485;SDS011;4781;48.776;9.200;2024-02-21T14:44:12;1.55;;;0.70;;
9485;SDS011;4781;48.776;9.200;2024-02-21T14:46:40;3.10;;;0.68;;
9485;SDS011;4781;48.776;9.200;2024-02-21T14:49:09;1.37;;;0.60;;
9485;SDS011;4781;48.776;9.200;2024-02-21T14:51:38;2.25;;;0.70;;
9485;SDS011;4781;48.776;9.200;2024-02-21T14:54:06;2.08;;;0.95;;
9485;SDS011;4781;48.776;9.200;2024-02-21T14:56:35;1.35;;;0.62;;
9485;SDS011;4781;48.776;9.200;2024-02-21T14:59:05;1.85;;;0.93;;
9485;SDS011;4781;48.776;9.200;2024-02-21T15:01:36;1.00;;;0.50;;
9485;SDS011;4781;48.776;9.200;2024-02-21T15:04:05;1.02;;;0.60;;
9485;SDS011;4781;48.776;9.200;2024-02-21T15:06:34;3.40;;;1.05;;
9485;SDS011;4781;48.776;9.200;2024-02-21T15:09:05;3.70;;;0.82;;
9485;SDS011;4781;48.776;9.200;2024-02-21T15:11:34;2.55;;;1.00;;
9485;SDS011;4781;48.776;9.200;2024-02-21T15:14:02;1.65;;;0.80;;
9485;SDS011;4781;48.776;9.200;2024-02-21T15:16:31;0.90;;;0.60;;
9485;SDS011;4781;48.776;9.200;2024-02-21T15:18:59;1.10;;;0.70;;
9485;SDS011;4781;48.776;9.200;2024-02-21T15:21:29;2.37;;;0.80;;
9485;SDS011;4781;48.776;9.200;2024-02-21T15:23:57;1.32;;;0.62;;
9485;SDS011;4781;48.776;9.200;2024-02-21T15:26:26;2.75;;;1.10;;
9485;SDS011;4781;48.776;9.200;2024-02-21T15:28:55;1.82;;;0.65;;